Swinomish — WC5223 — position and weather

sailwx.info

Track history (hours):
 
Tides and Currents Weather Stations Pressure Air Temp Water Temp Dewpoint Dewpoint Depression Visibility Wind Speed Wind Dir Waves Ship Positions

Swinomish

Owner: DUNLAP TOWING CO, LA CONNER, WA. More information available from US FCC via Universal Licensing System and Coast Guard Vessel Documentation Center.

Last reported at 2015-Jul-06 23:33 UTC. Time now 2015-Jul-07 00:13 UTC.
Position N 48°31' W 122°39'.

Length 15 m; draft 3.5 m.

Type: Tug. MMSI: 366972050.

Date/timePositionNaut miles runAvg speedWind from/ knotsBaromVisibWave heightAir tempDewpointWater temp
2015-Jul-06 23:33N 48°31' W 122°39'2 2.5
2015-Jul-06 22:34N 48°31' W 122°42'6 5.6
2015-Jul-06 21:33N 48°31' W 122°51'0 0.0
2015-Jul-06 20:33N 48°31' W 122°51'0 0.0
2015-Jul-06 19:33N 48°31' W 122°51'0 0.0
2015-Jul-06 18:34N 48°31' W 122°51'0 0.0
2015-Jul-06 17:34N 48°31' W 122°51'0 0.0
2015-Jul-06 16:34N 48°31' W 122°51'0 0.0
2015-Jul-06 15:34N 48°31' W 122°51'0 0.0
2015-Jul-06 14:33N 48°31' W 122°51'0 0.2
2015-Jul-06 13:33N 48°31' W 122°51'1 1.4
2015-Jul-06 12:33N 48°32' W 122°49'1 0.9
2015-Jul-06 11:34N 48°31' W 122°50'1 0.7
2015-Jul-06 10:33N 48°31' W 122°51'0 0.0
2015-Jul-06 09:34N 48°31' W 122°51'0 0.0
2015-Jul-06 08:34N 48°31' W 122°51'0 0.0
2015-Jul-06 07:34N 48°31' W 122°51'0 0.0
2015-Jul-06 06:33N 48°31' W 122°51'0 0.0
2015-Jul-06 05:33N 48°31' W 122°51'0 0.0
2015-Jul-06 04:34N 48°31' W 122°51'0 0.0
2015-Jul-06 03:33N 48°31' W 122°51'0 0.0
2015-Jul-06 02:33N 48°31' W 122°51'0 0.0
2015-Jul-06 01:34N 48°31' W 122°51'0 0.0
2015-Jul-06 00:34N 48°31' W 122°51'0 0.0
2015-Jul-05 23:34N 48°31' W 122°51'0 0.1
2015-Jul-05 22:34N 48°31' W 122°51'0 0.1
2015-Jul-05 21:34N 48°31' W 122°51'0 0.0
2015-Jul-05 20:34N 48°31' W 122°51'0 0.0
2015-Jul-05 19:34N 48°31' W 122°51'0 0.0
2015-Jul-05 18:34N 48°31' W 122°51'0 0.0
2015-Jul-05 17:33N 48°31' W 122°51'0 0.0
2015-Jul-05 16:33N 48°31' W 122°51'0 0.0
2015-Jul-05 15:34N 48°31' W 122°51'0 0.1
2015-Jul-05 14:33N 48°31' W 122°51'0 0.0
2015-Jul-05 13:34N 48°31' W 122°51'0 0.2
2015-Jul-05 12:34N 48°31' W 122°51'1 1.2
2015-Jul-05 11:34N 48°33' W 122°50'2 1.6
2015-Jul-05 10:34N 48°34' W 122°51'2 1.9
2015-Jul-05 09:33N 48°35' W 122°54'2 2.0
2015-Jul-05 08:34N 48°35' W 122°57'2 2.1
2015-Jul-05 07:33N 48°35' W 122°60'2 1.6
2015-Jul-05 06:33N 48°36' W 123°02'3 2.9
2015-Jul-05 05:33N 48°39' W 123°01'2 2.5
2015-Jul-05 04:34N 48°41' W 122°59'2 2.0
2015-Jul-05 03:33N 48°44' W 122°59'1 1.4
2015-Jul-05 02:34N 48°44' W 123°01'3 2.7
2015-Jul-05 01:33N 48°44' W 123°05'3 3.1
2015-Jul-05 00:34N 48°44' W 123°09'2 2.1
2015-Jul-04 23:34N 48°46' W 123°12'1 0.8
2015-Jul-04 22:34N 48°46' W 123°13'0 0.4
2015-Jul-04 21:34N 48°46' W 123°13'1 1.0
2015-Jul-04 20:34N 48°47' W 123°14'0 0.4
2015-Jul-04 19:34N 48°47' W 123°14'0 0.2
2015-Jul-04 18:33N 48°47' W 123°15'0 0.0
2015-Jul-04 17:34N 48°47' W 123°15'0 0.0
2015-Jul-04 16:34N 48°47' W 123°15'0 0.0
2015-Jul-04 15:34N 48°47' W 123°15'0 0.0
2015-Jul-04 14:33N 48°47' W 123°15'0 0.0
2015-Jul-04 13:34N 48°47' W 123°15'1 0.9
2015-Jul-04 12:34N 48°48' W 123°15'1 1.5
2015-Jul-04 11:33N 48°49' W 123°17'1 0.9
2015-Jul-04 10:34N 48°49' W 123°18'0 0.3
2015-Jul-04 09:33N 48°49' W 123°18'1 0.8
2015-Jul-04 08:34N 48°50' W 123°20'2 2.2
2015-Jul-04 07:31N 48°51' W 123°22'2 1.7
2015-Jul-04 06:31N 48°52' W 123°25'1 1.5
2015-Jul-04 05:33N 48°53' W 123°26'2 1.5
2015-Jul-04 04:33N 48°54' W 123°28'1 1.1
2015-Jul-04 03:34N 48°54' W 123°29'0 0.4
2015-Jul-04 02:31N 48°55' W 123°29'1 0.7
2015-Jul-04 01:33N 48°55' W 123°30'1 1.0
2015-Jul-04 00:33N 48°56' W 123°31'1 0.5
2015-Jul-03 23:31N 48°56' W 123°32'1 0.9
2015-Jul-03 22:28N 48°57' W 123°33'1 1.2
2015-Jul-03 21:34N 48°58' W 123°34'2 1.6
2015-Jul-03 20:33N 48°59' W 123°36'1 1.5
2015-Jul-03 19:33N 49°00' W 123°37'1 1.4
2015-Jul-03 18:33N 49°01' W 123°38'1 1.4
2015-Jul-03 17:32N 49°02' W 123°39'1 1.3
2015-Jul-03 16:34N 49°04' W 123°40'2 1.6
2015-Jul-03 15:33N 49°05' W 123°41'2 1.6
2015-Jul-03 14:33N 49°06' W 123°43'1 1.0
2015-Jul-03 13:33N 49°07' W 123°43'0 0.1
2015-Jul-03 12:33N 49°07' W 123°43'0 0.2
2015-Jul-03 11:32N 49°07' W 123°43'0 0.2
2015-Jul-03 10:33N 49°07' W 123°43'0 0.5
2015-Jul-03 09:34N 49°07' W 123°43'0 0.1
2015-Jul-03 08:33N 49°07' W 123°43'2 1.5
2015-Jul-03 07:33N 49°05' W 123°43'1 1.2
2015-Jul-03 06:32N 49°04' W 123°44'1 1.3
2015-Jul-03 05:33N 49°03' W 123°43'1 1.5
2015-Jul-03 04:34N 49°01' W 123°43'1 1.4
2015-Jul-03 03:33N 48°60' W 123°43'2 1.5
2015-Jul-03 02:34N 48°58' W 123°43'1 1.4
2015-Jul-03 01:34N 48°57' W 123°42'2 1.6
2015-Jul-03 00:34N 48°56' W 123°42'1 0.6
2015-Jul-02 23:34N 48°55' W 123°41'0 0.3
2015-Jul-02 22:34N 48°55' W 123°41'3 2.5
2015-Jul-02 21:33N 48°56' W 123°37'2 2.1
2015-Jul-02 20:33N 48°56' W 123°34'3 2.9
2015-Jul-02 19:34N 48°55' W 123°30'2 2.2
2015-Jul-02 18:33N 48°53' W 123°28'1 1.3
2015-Jul-02 17:34N 48°53' W 123°26'1 1.2
2015-Jul-02 16:33N 48°52' W 123°25'2 2.1
2015-Jul-02 15:34N 48°51' W 123°22'1 1.1
2015-Jul-02 14:33N 48°50' W 123°20'2 2.4
2015-Jul-02 13:33N 48°49' W 123°17'3 2.8
2015-Jul-02 12:34N 48°47' W 123°14'2 2.4
2015-Jul-02 11:33N 48°46' W 123°11'2 2.4
2015-Jul-02 10:33N 48°44' W 123°08'2 2.4
2015-Jul-02 09:32N 48°42' W 123°07'3 3.6
2015-Jul-02 08:33N 48°39' W 123°04'2 1.7
2015-Jul-02 07:32N 48°38' W 123°03'3 2.7
2015-Jul-02 06:34N 48°35' W 123°00'2 1.9
2015-Jul-02 05:33N 48°36' W 122°57'2 2.0
2015-Jul-02 04:34N 48°35' W 122°54'3 2.7
2015-Jul-02 03:34N 48°34' W 122°51'2 2.5
2015-Jul-02 02:34N 48°32' W 122°48'3 2.8
2015-Jul-02 01:33N 48°30' W 122°45'12 1.3
2015-Jul-01 16:06N 48°24' W 122°30'0 0.0
2015-Jul-01 15:31N 48°24' W 122°30'0 0.0
2015-Jul-01 14:32N 48°24' W 122°30'0 0.0
2015-Jul-01 13:33N 48°24' W 122°30'0 0.0
2015-Jul-01 11:21N 48°24' W 122°30'0 0.0
2015-Jul-01 10:33N 48°24' W 122°30'0 0.0
2015-Jul-01 09:33N 48°24' W 122°30'0 0.0
2015-Jul-01 08:33N 48°24' W 122°30'0 0.0
2015-Jul-01 07:33N 48°24' W 122°30'0 0.0
2015-Jul-01 06:33N 48°24' W 122°30'0 0.0
2015-Jul-01 05:33N 48°24' W 122°30'0 0.0
2015-Jul-01 04:33N 48°24' W 122°30'0 0.0
2015-Jul-01 03:33N 48°24' W 122°30'0 0.0
2015-Jul-01 02:33N 48°24' W 122°30'0 0.0
2015-Jul-01 01:19N 48°24' W 122°30'0 0.0
2015-Jun-30 21:22N 48°24' W 122°30'0 0.0
2015-Jun-30 20:33N 48°24' W 122°30'0 0.0
2015-Jun-30 12:17N 48°24' W 122°30'0 0.0
2015-Jun-30 11:33N 48°24' W 122°30'0 0.0
2015-Jun-30 10:33N 48°24' W 122°30'0 0.0
2015-Jun-30 09:33N 48°24' W 122°30'0 0.0
2015-Jun-30 08:33N 48°24' W 122°30'0 0.0
2015-Jun-30 07:33N 48°24' W 122°30'0 0.0
2015-Jun-30 06:33N 48°24' W 122°30'0 0.0
2015-Jun-30 05:33N 48°24' W 122°30'0 0.0
2015-Jun-30 04:33N 48°24' W 122°30'0 0.0
2015-Jun-30 03:33N 48°24' W 122°30'0 0.0
2015-Jun-30 02:33N 48°24' W 122°30'0 0.0
2015-Jun-30 01:29N 48°24' W 122°30'0 0.0
2015-Jun-29 10:11N 48°24' W 122°30'0 0.0
2015-Jun-29 09:33N 48°24' W 122°30'0 0.0
2015-Jun-29 08:33N 48°24' W 122°30'0 0.0
2015-Jun-29 07:33N 48°24' W 122°30'0 0.0
2015-Jun-29 06:32N 48°24' W 122°30'0 0.0
2015-Jun-29 05:04N 48°24' W 122°30'0 0.0
2015-Jun-29 04:29N 48°24' W 122°30'0 0.0
2015-Jun-29 03:33N 48°24' W 122°30'0 0.0
2015-Jun-29 02:33N 48°24' W 122°30'0 0.0
2015-Jun-29 01:33N 48°24' W 122°30'0 0.0
2015-Jun-29 00:33N 48°24' W 122°30'0 0.0
2015-Jun-28 22:24N 48°24' W 122°30'0 0.0
2015-Jun-28 21:31N 48°24' W 122°30'0 0.1
2015-Jun-28 20:31N 48°24' W 122°30'15 7.2
2015-Jun-28 18:24N 48°09' W 122°32'8 8.6
2015-Jun-28 17:31N 48°03' W 122°24'7 7.6
2015-Jun-28 16:33N 47°56' W 122°20'7 7.3
2015-Jun-28 15:33N 47°50' W 122°24'8 8.1
2015-Jun-28 14:33N 47°42' W 122°26'7 6.6
2015-Jun-28 13:33N 47°36' W 122°22'1 1.0
2015-Jun-28 12:33N 47°36' W 122°24'1211.6
2015-Jun-28 11:33N 47°26' W 122°32'1211.7
2015-Jun-28 10:33N 47°14' W 122°35'4 0.3
2015-Jun-27 20:24N 47°11' W 122°39'2 1.9
2015-Jun-27 19:33N 47°12' W 122°38'3 3.2
2015-Jun-27 18:33N 47°15' W 122°35'4 4.0
2015-Jun-27 17:33N 47°18' W 122°33'2 1.9
2015-Jun-27 16:33N 47°18' W 122°30'2 1.5
2015-Jun-27 15:33N 47°17' W 122°28'0 0.4
2015-Jun-27 14:33N 47°17' W 122°28'0 0.5
2015-Jun-27 13:33N 47°17' W 122°28'1 1.0
2015-Jun-27 12:33N 47°18' W 122°29'0 0.5
2015-Jun-27 11:33N 47°18' W 122°29'1 0.9
2015-Jun-27 10:33N 47°17' W 122°28'0 0.3
2015-Jun-27 09:33N 47°17' W 122°29'1 0.9
2015-Jun-27 08:33N 47°18' W 122°30'1 1.1
2015-Jun-27 07:33N 47°19' W 122°29'2 2.5
2015-Jun-27 06:33N 47°21' W 122°27'2 2.1
2015-Jun-27 05:33N 47°22' W 122°24'2 1.8
2015-Jun-27 04:33N 47°23' W 122°22'2 2.2
2015-Jun-27 03:33N 47°25' W 122°25'2 2.0
2015-Jun-27 02:33N 47°27' W 122°25'2 1.7
2015-Jun-27 01:33N 47°29' W 122°26'2 1.9
2015-Jun-27 00:33N 47°30' W 122°27'2 1.9
2015-Jun-26 23:33N 47°32' W 122°28'  
Track history (hours):
 
Tides and Currents Weather Stations Pressure Air Temp Water Temp Dewpoint Dewpoint Depression Visibility Wind Speed Wind Dir Waves Ship Positions

Swinomish

Owner: DUNLAP TOWING CO, LA CONNER, WA. More information available from US FCC via Universal Licensing System and Coast Guard Vessel Documentation Center.

Last reported at 2015-Jul-06 23:33 UTC. Time now 2015-Jul-07 00:13 UTC.
Position N 48°31' W 122°39'.

Length 15 m; draft 3.5 m.

Type: Tug. MMSI: 366972050.

Date/timePositionNaut miles runAvg speedWind from/ knotsBaromVisibWave heightAir tempDewpointWater temp
2015-Jul-06 23:33N 48°31' W 122°39'2 2.5
2015-Jul-06 22:34N 48°31' W 122°42'6 5.6
2015-Jul-06 21:33N 48°31' W 122°51'0 0.0
2015-Jul-06 20:33N 48°31' W 122°51'0 0.0
2015-Jul-06 19:33N 48°31' W 122°51'0 0.0
2015-Jul-06 18:34N 48°31' W 122°51'0 0.0
2015-Jul-06 17:34N 48°31' W 122°51'0 0.0
2015-Jul-06 16:34N 48°31' W 122°51'0 0.0
2015-Jul-06 15:34N 48°31' W 122°51'0 0.0
2015-Jul-06 14:33N 48°31' W 122°51'0 0.2
2015-Jul-06 13:33N 48°31' W 122°51'1 1.4
2015-Jul-06 12:33N 48°32' W 122°49'1 0.9
2015-Jul-06 11:34N 48°31' W 122°50'1 0.7
2015-Jul-06 10:33N 48°31' W 122°51'0 0.0
2015-Jul-06 09:34N 48°31' W 122°51'0 0.0
2015-Jul-06 08:34N 48°31' W 122°51'0 0.0
2015-Jul-06 07:34N 48°31' W 122°51'0 0.0
2015-Jul-06 06:33N 48°31' W 122°51'0 0.0
2015-Jul-06 05:33N 48°31' W 122°51'0 0.0
2015-Jul-06 04:34N 48°31' W 122°51'0 0.0
2015-Jul-06 03:33N 48°31' W 122°51'0 0.0
2015-Jul-06 02:33N 48°31' W 122°51'0 0.0
2015-Jul-06 01:34N 48°31' W 122°51'0 0.0
2015-Jul-06 00:34N 48°31' W 122°51'0 0.0
2015-Jul-05 23:34N 48°31' W 122°51'0 0.1
2015-Jul-05 22:34N 48°31' W 122°51'0 0.1
2015-Jul-05 21:34N 48°31' W 122°51'0 0.0
2015-Jul-05 20:34N 48°31' W 122°51'0 0.0
2015-Jul-05 19:34N 48°31' W 122°51'0 0.0
2015-Jul-05 18:34N 48°31' W 122°51'0 0.0
2015-Jul-05 17:33N 48°31' W 122°51'0 0.0
2015-Jul-05 16:33N 48°31' W 122°51'0 0.0
2015-Jul-05 15:34N 48°31' W 122°51'0 0.1
2015-Jul-05 14:33N 48°31' W 122°51'0 0.0
2015-Jul-05 13:34N 48°31' W 122°51'0 0.2
2015-Jul-05 12:34N 48°31' W 122°51'1 1.2
2015-Jul-05 11:34N 48°33' W 122°50'2 1.6
2015-Jul-05 10:34N 48°34' W 122°51'2 1.9
2015-Jul-05 09:33N 48°35' W 122°54'2 2.0
2015-Jul-05 08:34N 48°35' W 122°57'2 2.1
2015-Jul-05 07:33N 48°35' W 122°60'2 1.6
2015-Jul-05 06:33N 48°36' W 123°02'3 2.9
2015-Jul-05 05:33N 48°39' W 123°01'2 2.5
2015-Jul-05 04:34N 48°41' W 122°59'2 2.0
2015-Jul-05 03:33N 48°44' W 122°59'1 1.4
2015-Jul-05 02:34N 48°44' W 123°01'3 2.7
2015-Jul-05 01:33N 48°44' W 123°05'3 3.1
2015-Jul-05 00:34N 48°44' W 123°09'2 2.1
2015-Jul-04 23:34N 48°46' W 123°12'1 0.8
2015-Jul-04 22:34N 48°46' W 123°13'0 0.4
2015-Jul-04 21:34N 48°46' W 123°13'1 1.0
2015-Jul-04 20:34N 48°47' W 123°14'0 0.4
2015-Jul-04 19:34N 48°47' W 123°14'0 0.2
2015-Jul-04 18:33N 48°47' W 123°15'0 0.0
2015-Jul-04 17:34N 48°47' W 123°15'0 0.0
2015-Jul-04 16:34N 48°47' W 123°15'0 0.0
2015-Jul-04 15:34N 48°47' W 123°15'0 0.0
2015-Jul-04 14:33N 48°47' W 123°15'0 0.0
2015-Jul-04 13:34N 48°47' W 123°15'1 0.9
2015-Jul-04 12:34N 48°48' W 123°15'1 1.5
2015-Jul-04 11:33N 48°49' W 123°17'1 0.9
2015-Jul-04 10:34N 48°49' W 123°18'0 0.3
2015-Jul-04 09:33N 48°49' W 123°18'1 0.8
2015-Jul-04 08:34N 48°50' W 123°20'2 2.2
2015-Jul-04 07:31N 48°51' W 123°22'2 1.7
2015-Jul-04 06:31N 48°52' W 123°25'1 1.5
2015-Jul-04 05:33N 48°53' W 123°26'2 1.5
2015-Jul-04 04:33N 48°54' W 123°28'1 1.1
2015-Jul-04 03:34N 48°54' W 123°29'0 0.4
2015-Jul-04 02:31N 48°55' W 123°29'1 0.7
2015-Jul-04 01:33N 48°55' W 123°30'1 1.0
2015-Jul-04 00:33N 48°56' W 123°31'1 0.5
2015-Jul-03 23:31N 48°56' W 123°32'1 0.9
2015-Jul-03 22:28N 48°57' W 123°33'1 1.2
2015-Jul-03 21:34N 48°58' W 123°34'2 1.6
2015-Jul-03 20:33N 48°59' W 123°36'1 1.5
2015-Jul-03 19:33N 49°00' W 123°37'1 1.4
2015-Jul-03 18:33N 49°01' W 123°38'1 1.4
2015-Jul-03 17:32N 49°02' W 123°39'1 1.3
2015-Jul-03 16:34N 49°04' W 123°40'2 1.6
2015-Jul-03 15:33N 49°05' W 123°41'2 1.6
2015-Jul-03 14:33N 49°06' W 123°43'1 1.0
2015-Jul-03 13:33N 49°07' W 123°43'0 0.1
2015-Jul-03 12:33N 49°07' W 123°43'0 0.2
2015-Jul-03 11:32N 49°07' W 123°43'0 0.2
2015-Jul-03 10:33N 49°07' W 123°43'0 0.5
2015-Jul-03 09:34N 49°07' W 123°43'0 0.1
2015-Jul-03 08:33N 49°07' W 123°43'2 1.5
2015-Jul-03 07:33N 49°05' W 123°43'1 1.2
2015-Jul-03 06:32N 49°04' W 123°44'1 1.3
2015-Jul-03 05:33N 49°03' W 123°43'1 1.5
2015-Jul-03 04:34N 49°01' W 123°43'1 1.4
2015-Jul-03 03:33N 48°60' W 123°43'2 1.5
2015-Jul-03 02:34N 48°58' W 123°43'1 1.4
2015-Jul-03 01:34N 48°57' W 123°42'2 1.6
2015-Jul-03 00:34N 48°56' W 123°42'1 0.6
2015-Jul-02 23:34N 48°55' W 123°41'0 0.3
2015-Jul-02 22:34N 48°55' W 123°41'3 2.5
2015-Jul-02 21:33N 48°56' W 123°37'2 2.1
2015-Jul-02 20:33N 48°56' W 123°34'3 2.9
2015-Jul-02 19:34N 48°55' W 123°30'2 2.2
2015-Jul-02 18:33N 48°53' W 123°28'1 1.3
2015-Jul-02 17:34N 48°53' W 123°26'1 1.2
2015-Jul-02 16:33N 48°52' W 123°25'2 2.1
2015-Jul-02 15:34N 48°51' W 123°22'1 1.1
2015-Jul-02 14:33N 48°50' W 123°20'2 2.4
2015-Jul-02 13:33N 48°49' W 123°17'3 2.8
2015-Jul-02 12:34N 48°47' W 123°14'2 2.4
2015-Jul-02 11:33N 48°46' W 123°11'2 2.4
2015-Jul-02 10:33N 48°44' W 123°08'2 2.4
2015-Jul-02 09:32N 48°42' W 123°07'3 3.6
2015-Jul-02 08:33N 48°39' W 123°04'2 1.7
2015-Jul-02 07:32N 48°38' W 123°03'3 2.7
2015-Jul-02 06:34N 48°35' W 123°00'2 1.9
2015-Jul-02 05:33N 48°36' W 122°57'2 2.0
2015-Jul-02 04:34N 48°35' W 122°54'3 2.7
2015-Jul-02 03:34N 48°34' W 122°51'2 2.5
2015-Jul-02 02:34N 48°32' W 122°48'3 2.8
2015-Jul-02 01:33N 48°30' W 122°45'12 1.3
2015-Jul-01 16:06N 48°24' W 122°30'0 0.0
2015-Jul-01 15:31N 48°24' W 122°30'0 0.0
2015-Jul-01 14:32N 48°24' W 122°30'0 0.0
2015-Jul-01 13:33N 48°24' W 122°30'0 0.0
2015-Jul-01 11:21N 48°24' W 122°30'0 0.0
2015-Jul-01 10:33N 48°24' W 122°30'0 0.0
2015-Jul-01 09:33N 48°24' W 122°30'0 0.0
2015-Jul-01 08:33N 48°24' W 122°30'0 0.0
2015-Jul-01 07:33N 48°24' W 122°30'0 0.0
2015-Jul-01 06:33N 48°24' W 122°30'0 0.0
2015-Jul-01 05:33N 48°24' W 122°30'0 0.0
2015-Jul-01 04:33N 48°24' W 122°30'0 0.0
2015-Jul-01 03:33N 48°24' W 122°30'0 0.0
2015-Jul-01 02:33N 48°24' W 122°30'0 0.0
2015-Jul-01 01:19N 48°24' W 122°30'0 0.0
2015-Jun-30 21:22N 48°24' W 122°30'0 0.0
2015-Jun-30 20:33N 48°24' W 122°30'0 0.0
2015-Jun-30 12:17N 48°24' W 122°30'0 0.0
2015-Jun-30 11:33N 48°24' W 122°30'0 0.0
2015-Jun-30 10:33N 48°24' W 122°30'0 0.0
2015-Jun-30 09:33N 48°24' W 122°30'0 0.0
2015-Jun-30 08:33N 48°24' W 122°30'0 0.0
2015-Jun-30 07:33N 48°24' W 122°30'0 0.0
2015-Jun-30 06:33N 48°24' W 122°30'0 0.0
2015-Jun-30 05:33N 48°24' W 122°30'0 0.0
2015-Jun-30 04:33N 48°24' W 122°30'0 0.0
2015-Jun-30 03:33N 48°24' W 122°30'0 0.0
2015-Jun-30 02:33N 48°24' W 122°30'0 0.0
2015-Jun-30 01:29N 48°24' W 122°30'0 0.0
2015-Jun-29 10:11N 48°24' W 122°30'0 0.0
2015-Jun-29 09:33N 48°24' W 122°30'0 0.0
2015-Jun-29 08:33N 48°24' W 122°30'0 0.0
2015-Jun-29 07:33N 48°24' W 122°30'0 0.0
2015-Jun-29 06:32N 48°24' W 122°30'0 0.0
2015-Jun-29 05:04N 48°24' W 122°30'0 0.0
2015-Jun-29 04:29N 48°24' W 122°30'0 0.0
2015-Jun-29 03:33N 48°24' W 122°30'0 0.0
2015-Jun-29 02:33N 48°24' W 122°30'0 0.0
2015-Jun-29 01:33N 48°24' W 122°30'0 0.0
2015-Jun-29 00:33N 48°24' W 122°30'0 0.0
2015-Jun-28 22:24N 48°24' W 122°30'0 0.0
2015-Jun-28 21:31N 48°24' W 122°30'0 0.1
2015-Jun-28 20:31N 48°24' W 122°30'15 7.2
2015-Jun-28 18:24N 48°09' W 122°32'8 8.6
2015-Jun-28 17:31N 48°03' W 122°24'7 7.6
2015-Jun-28 16:33N 47°56' W 122°20'7 7.3
2015-Jun-28 15:33N 47°50' W 122°24'8 8.1
2015-Jun-28 14:33N 47°42' W 122°26'7 6.6
2015-Jun-28 13:33N 47°36' W 122°22'1 1.0
2015-Jun-28 12:33N 47°36' W 122°24'1211.6
2015-Jun-28 11:33N 47°26' W 122°32'1211.7
2015-Jun-28 10:33N 47°14' W 122°35'4 0.3
2015-Jun-27 20:24N 47°11' W 122°39'2 1.9
2015-Jun-27 19:33N 47°12' W 122°38'3 3.2
2015-Jun-27 18:33N 47°15' W 122°35'4 4.0
2015-Jun-27 17:33N 47°18' W 122°33'2 1.9
2015-Jun-27 16:33N 47°18' W 122°30'2 1.5
2015-Jun-27 15:33N 47°17' W 122°28'0 0.4
2015-Jun-27 14:33N 47°17' W 122°28'0 0.5
2015-Jun-27 13:33N 47°17' W 122°28'1 1.0
2015-Jun-27 12:33N 47°18' W 122°29'0 0.5
2015-Jun-27 11:33N 47°18' W 122°29'1 0.9
2015-Jun-27 10:33N 47°17' W 122°28'0 0.3
2015-Jun-27 09:33N 47°17' W 122°29'1 0.9
2015-Jun-27 08:33N 47°18' W 122°30'1 1.1
2015-Jun-27 07:33N 47°19' W 122°29'2 2.5
2015-Jun-27 06:33N 47°21' W 122°27'2 2.1
2015-Jun-27 05:33N 47°22' W 122°24'2 1.8
2015-Jun-27 04:33N 47°23' W 122°22'2 2.2
2015-Jun-27 03:33N 47°25' W 122°25'2 2.0
2015-Jun-27 02:33N 47°27' W 122°25'2 1.7
2015-Jun-27 01:33N 47°29' W 122°26'2 1.9
2015-Jun-27 00:33N 47°30' W 122°27'2 1.9
2015-Jun-26 23:33N 47°32' W 122°28'  

Dump ship's entire track history